»·PEaware :: JBU335 KTUS-KSAN

JBU335 :: KTUS-KSAN

FLIGHT INFORMATION

Flight Status: Arrived
Operator:
JetBlue Airways
More flights by this operator :: More flights under this callsign
Pilot: Drew L. (13237)
Aircraft: AIRBUS A320
(A320)
More flights by this aircraft type
Origin: KTUS Tucson Intl
United States
Destination: KSAN San Diego Intl-Lindbergh
United States
More flights between these airports :: More routes between these airports
Route: +WLDKT3 GBN J2 HOGGZ LUCKI1
File this flight plan on PilotEdge
Remarks: PBN / A1B1C1D1O1S1 DOF / 181011 REG / N320SB EET / KZLA0028 OPR / JBU PER / C RMK / TCAS SIMBRIEF
Altitude:
(Current/Filed)
38,000ft
Speed:
(Current/Filed)
445kts
Departed: 10-Oct-18 05:23 PM
Arrived: 10-Oct-18 06:23 PM
Distance/Time
Traveled:
319nm/1:00
Distance/Time
To Go:
Arrived

Flight Plot

Page will automatically refresh every two minutes.

Flight plan parsing failed; only flown route is shown


Map Options




Map Legend


Flown Route
Filed Route
Departure Airport
Arrival Airport
Navaid (VOR, NDB)
Fix

Horizontal Profiles

Position Reports

Time Latitude Longitude Heading Altitude Ground
Speed
10-Oct-18 16:29 32.120763 -110.939949 74 2599ft 0kts
10-Oct-18 16:30 32.120763 -110.939949 74 2599ft 0kts
10-Oct-18 16:31 32.120763 -110.939949 74 2599ft 0kts
10-Oct-18 16:32 32.120763 -110.939949 74 2599ft 0kts
10-Oct-18 16:33 32.120763 -110.939949 74 2599ft 0kts
10-Oct-18 16:34 32.120763 -110.939949 74 2599ft 0kts
10-Oct-18 16:35 32.120763 -110.939949 74 2599ft 0kts
10-Oct-18 16:36 32.120763 -110.939949 74 2599ft 0kts
10-Oct-18 16:37 32.120763 -110.939949 74 2599ft 0kts
10-Oct-18 16:38 32.120763 -110.939949 74 2599ft 0kts
10-Oct-18 16:39 32.120763 -110.939949 74 2599ft 0kts
10-Oct-18 16:40 32.120763 -110.939949 74 2599ft 0kts
10-Oct-18 16:41 32.120763 -110.939949 74 2599ft 0kts
10-Oct-18 16:42 32.120763 -110.939949 74 2599ft 0kts
10-Oct-18 16:43 32.120763 -110.939949 74 2599ft 0kts
10-Oct-18 16:44 32.120763 -110.939949 74 2599ft 0kts
10-Oct-18 16:45 32.120763 -110.939949 74 2599ft 0kts
10-Oct-18 16:46 32.120763 -110.939949 74 2599ft 0kts
10-Oct-18 16:47 32.120763 -110.939949 74 2599ft 0kts
10-Oct-18 16:48 32.120763 -110.939949 74 2599ft 0kts
10-Oct-18 16:49 32.120763 -110.939949 74 2599ft 0kts
10-Oct-18 16:50 32.120763 -110.939949 74 2599ft 0kts
10-Oct-18 16:51 32.120763 -110.939949 74 2599ft 0kts
10-Oct-18 16:52 32.120763 -110.939949 74 2599ft 0kts
10-Oct-18 16:53 32.120763 -110.939949 74 2599ft 0kts
10-Oct-18 16:54 32.120763 -110.939949 74 2599ft 0kts
10-Oct-18 16:55 32.120763 -110.939949 74 2599ft 0kts
10-Oct-18 16:56 32.120763 -110.939949 74 2599ft 0kts
10-Oct-18 16:57 32.120763 -110.939949 74 2599ft 0kts
10-Oct-18 16:58 32.120763 -110.939949 74 2599ft 0kts
10-Oct-18 16:59 32.120763 -110.939949 74 2599ft 0kts
10-Oct-18 17:00 32.120763 -110.939949 74 2599ft 0kts
10-Oct-18 17:01 32.120763 -110.939949 74 2599ft 0kts
10-Oct-18 17:02 32.120763 -110.939949 74 2599ft 0kts
10-Oct-18 17:03 32.120763 -110.939949 74 2599ft 0kts
10-Oct-18 17:04 32.120763 -110.939949 74 2599ft 0kts
10-Oct-18 17:05 32.120763 -110.939949 74 2599ft 0kts
10-Oct-18 17:06 32.120763 -110.939949 74 2599ft 0kts
10-Oct-18 17:07 32.120763 -110.939949 74 2599ft 0kts
10-Oct-18 17:08 32.120763 -110.939949 74 2599ft 0kts
10-Oct-18 17:09 32.120763 -110.939949 74 2599ft 0kts
10-Oct-18 17:10 32.120763 -110.939949 74 2599ft 0kts
10-Oct-18 17:11 32.120763 -110.939949 74 2599ft 0kts
10-Oct-18 17:12 32.120763 -110.939949 74 2599ft 0kts
10-Oct-18 17:13 32.120763 -110.939949 74 2599ft 0kts
10-Oct-18 17:14 32.120763 -110.939949 74 2599ft 0kts
10-Oct-18 17:15 32.120763 -110.939950 74 2599ft 0kts
10-Oct-18 17:16 32.120641 -110.940477 74 2599ft 2kts
10-Oct-18 17:17 32.120789 -110.941092 133 2599ft 2kts
10-Oct-18 17:18 32.120861 -110.941181 134 2599ft 0kts
10-Oct-18 17:19 32.120861 -110.941181 134 2599ft 0kts
10-Oct-18 17:20 32.120011 -110.941282 207 2599ft 10kts
10-Oct-18 17:21 32.117180 -110.938248 136 2599ft 20kts
10-Oct-18 17:22 32.112741 -110.932984 135 2599ft 28kts
10-Oct-18 17:23 32.106634 -110.925838 135 2599ft 32kts
10-Oct-18 17:24 32.102886 -110.923915 316 2599ft 12kts
10-Oct-18 17:25 32.122238 -110.946523 313 3286ft 203kts
10-Oct-18 17:26 32.173961 -111.007502 312 6767ft 271kts
10-Oct-18 17:27 32.225884 -111.078366 282 10097ft 296kts
10-Oct-18 17:28 32.238787 -111.164265 276 12300ft 336kts
10-Oct-18 17:29 32.254731 -111.274552 275 15633ft 348kts
10-Oct-18 17:30 32.273942 -111.407519 275 19043ft 360kts
10-Oct-18 17:31 32.303512 -111.500552 299 21185ft 380kts
10-Oct-18 17:32 32.362845 -111.605427 298 23526ft 389kts
10-Oct-18 17:33 32.423100 -111.712588 298 25651ft 397kts
10-Oct-18 17:34 32.484686 -111.822426 297 27575ft 404kts
10-Oct-18 17:35 32.557355 -111.952435 297 29572ft 412kts
10-Oct-18 17:36 32.610313 -112.047464 297 30862ft 417kts
10-Oct-18 17:37 32.674283 -112.162574 298 32234ft 422kts
10-Oct-18 17:38 32.739070 -112.279516 298 33413ft 427kts
10-Oct-18 17:39 32.803386 -112.395964 298 34855ft 420kts
10-Oct-18 17:40 32.866332 -112.510296 298 36032ft 418kts
10-Oct-18 17:41 32.935938 -112.646371 286 37177ft 409kts
10-Oct-18 17:42 32.945759 -112.754160 259 37820ft 399kts
10-Oct-18 17:43 32.928128 -112.883797 259 37839ft 395kts
10-Oct-18 17:44 32.910682 -113.012015 259 37840ft 392kts
10-Oct-18 17:45 32.893209 -113.139554 259 37829ft 389kts
10-Oct-18 17:46 32.875746 -113.266092 259 37813ft 388kts
10-Oct-18 17:47 32.858091 -113.393048 259 37820ft 389kts
10-Oct-18 17:48 32.840371 -113.519547 259 37837ft 390kts
10-Oct-18 17:49 32.819834 -113.664947 259 37837ft 391kts
10-Oct-18 17:50 32.801755 -113.791866 258 37835ft 392kts
10-Oct-18 17:51 32.786459 -113.898457 258 37838ft 392kts
10-Oct-18 17:52 32.775100 -114.049069 267 37830ft 394kts
10-Oct-18 17:53 32.778442 -114.157426 270 37820ft 395kts
10-Oct-18 17:54 32.783457 -114.286930 269 37809ft 394kts
10-Oct-18 17:55 32.795736 -114.416153 283 37805ft 401kts
10-Oct-18 17:56 32.830403 -114.541888 283 37810ft 401kts
10-Oct-18 17:57 32.864056 -114.664775 283 37809ft 401kts
10-Oct-18 17:58 32.878131 -114.786422 266 36457ft 402kts
10-Oct-18 17:59 32.875140 -114.918261 266 33987ft 399kts
10-Oct-18 18:00 32.872150 -115.046920 265 32216ft 381kts
10-Oct-18 18:01 32.869187 -115.169891 265 30479ft 364kts
10-Oct-18 18:02 32.866248 -115.287377 264 28770ft 348kts
10-Oct-18 18:03 32.856790 -115.398893 257 27096ft 332kts
10-Oct-18 18:04 32.841702 -115.505238 256 25495ft 324kts
10-Oct-18 18:05 32.824737 -115.608225 256 23977ft 319kts
10-Oct-18 18:06 32.809893 -115.698418 255 22689ft 315kts
10-Oct-18 18:07 32.794481 -115.791869 255 21270ft 312kts
10-Oct-18 18:08 32.781889 -115.892844 261 19713ft 309kts
10-Oct-18 18:09 32.773094 -116.010225 261 17850ft 304kts
10-Oct-18 18:10 32.766833 -116.092995 261 16536ft 300kts
10-Oct-18 18:11 32.759388 -116.190586 262 14975ft 295kts
10-Oct-18 18:12 32.751970 -116.286819 262 13491ft 290kts
10-Oct-18 18:13 32.744822 -116.379035 262 12070ft 284kts
10-Oct-18 18:14 32.737649 -116.470706 263 10644ft 279kts
10-Oct-18 18:15 32.729727 -116.559436 262 9488ft 267kts
10-Oct-18 18:16 32.721300 -116.645811 262 8168ft 262kts
10-Oct-18 18:17 32.714692 -116.725882 263 6953ft 258kts
10-Oct-18 18:18 32.708241 -116.808250 263 5975ft 243kts
10-Oct-18 18:19 32.688200 -116.879741 249 5229ft 227kts
10-Oct-18 18:20 32.674898 -116.949813 285 4254ft 225kts
10-Oct-18 18:21 32.693423 -117.018569 282 3381ft 217kts
10-Oct-18 18:22 32.709142 -117.090232 283 2214ft 173kts
10-Oct-18 18:23 32.719439 -117.131931 284 1192ft 146kts
10-Oct-18 18:24 32.729646 -117.173567 285 201ft 129kts
10-Oct-18 18:25 32.734898 -117.199010 258 21ft 20kts
10-Oct-18 18:26 32.733747 -117.202850 273 19ft 1kts
10-Oct-18 18:27 32.733747 -117.203531 269 19ft 0kts

Navigation Log

Ident Type
Flight plan parsing failed, navigation log unavailable